createdAt,value
2023-10-17T00:01:14.665Z,19.40
2023-10-17T00:03:46.926Z,20.70
2023-10-17T00:06:18.000Z,21.92
2023-10-17T00:08:52.340Z,21.73
2023-10-17T00:11:22.773Z,23.80
2023-10-17T00:14:12.879Z,22.40
2023-10-17T00:16:41.292Z,24.20
2023-10-17T00:19:11.391Z,24.02
2023-10-17T00:21:40.929Z,22.67
2023-10-17T00:24:10.837Z,22.58
2023-10-17T00:26:40.246Z,22.80
2023-10-17T00:29:09.689Z,22.23
2023-10-17T00:31:38.564Z,23.50
2023-10-17T00:34:14.336Z,21.80
2023-10-17T00:36:50.554Z,22.08
2023-10-17T00:39:24.413Z,21.00
2023-10-17T00:41:53.963Z,20.77
2023-10-17T00:44:31.551Z,21.48
2023-10-17T00:47:00.120Z,21.30
2023-10-17T00:49:30.281Z,19.83
2023-10-17T00:52:04.286Z,19.73
2023-10-17T00:54:33.710Z,19.20
2023-10-17T00:57:06.939Z,19.15
2023-10-17T00:59:35.274Z,19.73
2023-10-17T01:02:08.190Z,17.80
2023-10-17T01:04:41.635Z,19.17
2023-10-17T01:07:12.621Z,18.17
2023-10-17T01:09:40.693Z,18.55
2023-10-17T01:12:11.694Z,16.98
2023-10-17T01:14:41.503Z,16.45
2023-10-17T01:17:13.686Z,17.60
2023-10-17T01:19:41.975Z,17.60
2023-10-17T01:22:11.580Z,17.25
2023-10-17T01:24:42.191Z,17.17
2023-10-17T01:27:13.965Z,16.00
2023-10-17T01:29:44.269Z,15.85
2023-10-17T01:32:12.692Z,16.25
2023-10-17T01:34:41.350Z,15.30
2023-10-17T01:37:11.666Z,14.02
2023-10-17T01:39:40.981Z,13.70
2023-10-17T01:42:10.029Z,14.07
2023-10-17T01:44:38.161Z,15.48
2023-10-17T01:47:09.095Z,15.60
2023-10-17T01:49:38.234Z,16.40
2023-10-17T01:52:09.255Z,16.23
2023-10-17T01:54:38.104Z,16.95
2023-10-17T01:57:08.909Z,18.30
2023-10-17T01:59:37.347Z,17.25
2023-10-17T02:05:08.969Z,16.77
2023-10-17T02:07:37.224Z,15.88
2023-10-17T02:10:08.700Z,17.02
2023-10-17T02:12:41.221Z,15.57
2023-10-17T02:15:09.878Z,17.70
2023-10-17T02:17:38.224Z,17.27
2023-10-17T02:20:18.485Z,17.52
2023-10-17T02:22:48.725Z,19.73
2023-10-17T02:25:17.337Z,17.52
2023-10-17T02:27:48.308Z,17.05
2023-10-17T02:30:16.657Z,17.85
2023-10-17T02:32:53.158Z,16.08
2023-10-17T02:35:23.853Z,18.08
2023-10-17T02:37:52.357Z,16.10
2023-10-17T02:40:22.082Z,15.85
2023-10-17T02:42:51.959Z,15.38
2023-10-17T02:45:27.129Z,14.82
2023-10-17T02:47:56.109Z,15.85
2023-10-17T02:50:42.507Z,15.57
2023-10-17T02:53:14.278Z,14.63
2023-10-17T02:55:42.340Z,14.90
2023-10-17T02:58:11.933Z,14.68
2023-10-17T03:00:45.242Z,14.77
2023-10-17T03:03:14.230Z,13.48
2023-10-17T03:05:42.663Z,14.30
2023-10-17T03:08:17.214Z,14.65
2023-10-17T03:10:47.656Z,14.27
2023-10-17T03:13:24.894Z,14.93
2023-10-17T03:15:57.705Z,14.55
2023-10-17T03:18:25.308Z,15.90
2023-10-17T03:20:53.941Z,15.50
2023-10-17T03:23:28.818Z,15.40
2023-10-17T03:26:02.456Z,15.82
2023-10-17T03:28:34.206Z,15.65
2023-10-17T03:31:11.931Z,15.30
2023-10-17T03:33:42.223Z,16.42
2023-10-17T03:36:30.899Z,16.00
2023-10-17T03:39:18.648Z,15.70
2023-10-17T03:41:47.017Z,15.50
2023-10-17T03:44:17.931Z,14.95
2023-10-17T03:46:49.869Z,15.25
2023-10-17T03:51:53.547Z,16.27
2023-10-17T03:54:24.028Z,16.40
2023-10-17T03:56:57.457Z,15.98
2023-10-17T03:59:39.334Z,16.25
2023-10-17T04:02:13.074Z,16.77
2023-10-17T04:04:50.772Z,16.55
2023-10-17T04:07:19.526Z,16.10
2023-10-17T04:09:55.482Z,15.10
2023-10-17T04:12:27.382Z,17.95
2023-10-17T04:17:31.251Z,18.40
2023-10-17T04:20:11.896Z,16.70
2023-10-17T04:22:40.432Z,18.23
2023-10-17T04:25:21.091Z,17.00
2023-10-17T04:27:53.090Z,19.25
2023-10-17T04:33:10.561Z,17.95
2023-10-17T04:35:47.714Z,16.98
2023-10-17T04:38:20.870Z,19.45
2023-10-17T04:41:03.580Z,17.73
2023-10-17T04:43:46.552Z,18.05
2023-10-17T04:46:18.076Z,18.77
2023-10-17T04:48:48.610Z,18.83
2023-10-17T04:51:26.835Z,19.70
2023-10-17T04:54:05.342Z,20.58
2023-10-17T04:56:53.779Z,21.65
2023-10-17T04:59:42.478Z,23.30
2023-10-17T05:02:30.396Z,22.08
2023-10-17T05:05:15.919Z,25.50
2023-10-17T05:08:05.584Z,27.33
2023-10-17T05:10:51.441Z,29.60
2023-10-17T05:13:37.162Z,32.20
2023-10-17T05:16:23.250Z,30.60
2023-10-17T05:19:10.514Z,31.08
2023-10-17T05:21:56.122Z,30.20
2023-10-17T05:24:42.101Z,24.17
2023-10-17T05:27:29.947Z,21.92
2023-10-17T05:30:15.820Z,21.30
2023-10-17T05:33:01.496Z,20.60
2023-10-17T05:35:49.165Z,22.40
2023-10-17T05:38:34.577Z,20.92
2023-10-17T05:41:20.626Z,22.40
2023-10-17T05:44:06.290Z,23.67
2023-10-17T05:46:52.477Z,25.42
2023-10-17T05:49:38.083Z,25.48
2023-10-17T05:52:25.294Z,26.17
2023-10-17T05:55:28.167Z,25.13
2023-10-17T05:58:15.912Z,23.08
2023-10-17T06:01:01.595Z,24.60
2023-10-17T06:03:47.758Z,23.67
2023-10-17T06:06:33.671Z,24.40
2023-10-17T06:09:21.207Z,22.55
2023-10-17T06:12:07.008Z,24.58
2023-10-17T06:14:53.506Z,23.15
2023-10-17T06:17:24.981Z,24.42
2023-10-17T06:19:53.960Z,31.92
2023-10-17T06:22:39.490Z,25.17
2023-10-17T06:25:27.405Z,23.30
2023-10-17T06:28:13.145Z,28.10
2023-10-17T06:30:49.384Z,23.77
2023-10-17T06:33:20.852Z,23.35
2023-10-17T06:38:28.384Z,21.10
2023-10-17T06:41:12.522Z,24.98
2023-10-17T06:43:41.284Z,22.75
2023-10-17T06:46:13.752Z,24.52
2023-10-17T06:51:31.372Z,19.02
2023-10-17T06:54:06.922Z,18.73
2023-10-17T06:56:45.544Z,18.75
2023-10-17T06:59:35.218Z,19.58
2023-10-17T07:02:12.443Z,19.23
2023-10-17T07:04:41.726Z,19.15
2023-10-17T07:07:11.095Z,19.27
2023-10-17T07:09:40.285Z,21.25
2023-10-17T07:12:15.040Z,19.55
2023-10-17T07:14:49.432Z,19.73
2023-10-17T07:17:29.793Z,19.38
2023-10-17T07:20:00.861Z,20.40
2023-10-17T07:22:36.789Z,18.80
2023-10-17T07:25:17.681Z,19.88
2023-10-17T07:27:48.056Z,20.90
2023-10-17T07:30:26.297Z,20.67
2023-10-17T07:32:57.947Z,21.27
2023-10-17T07:35:26.747Z,20.15
2023-10-17T07:38:00.306Z,19.77
2023-10-17T07:40:42.918Z,18.88
2023-10-17T07:43:16.139Z,19.17
2023-10-17T07:45:45.137Z,20.33
2023-10-17T07:48:23.426Z,19.42
2023-10-17T07:50:52.579Z,18.33
2023-10-17T07:53:21.798Z,18.23
2023-10-17T07:55:53.459Z,20.00
2023-10-17T07:58:43.033Z,19.23
2023-10-17T08:01:16.673Z,17.98
2023-10-17T08:03:56.282Z,19.13
2023-10-17T08:06:31.035Z,18.42
2023-10-17T08:09:01.761Z,17.52
2023-10-17T08:11:32.086Z,18.40
2023-10-17T08:14:07.035Z,16.20
2023-10-17T08:16:35.265Z,16.88
2023-10-17T08:19:15.984Z,16.13
2023-10-17T08:21:59.149Z,16.45
2023-10-17T08:24:34.696Z,15.15
2023-10-17T08:27:14.629Z,17.10
2023-10-17T08:29:49.595Z,15.95
2023-10-17T08:32:39.672Z,14.77
2023-10-17T08:35:18.618Z,14.05
2023-10-17T08:37:45.861Z,15.07
2023-10-17T08:40:33.187Z,14.45
2023-10-17T08:43:04.317Z,14.23
2023-10-17T08:45:38.243Z,14.98
2023-10-17T08:48:10.444Z,13.63
2023-10-17T08:50:42.859Z,13.60
2023-10-17T08:53:15.084Z,13.00
2023-10-17T08:55:43.961Z,13.43
2023-10-17T08:58:12.537Z,13.73
2023-10-17T09:00:51.176Z,13.32
2023-10-17T09:03:24.348Z,12.65
2023-10-17T09:05:59.614Z,13.00
2023-10-17T09:08:46.076Z,11.95
2023-10-17T09:11:16.498Z,12.20
2023-10-17T09:14:14.464Z,12.52
2023-10-17T09:16:50.365Z,11.43
2023-10-17T09:19:22.081Z,11.70
2023-10-17T09:21:51.308Z,11.48
2023-10-17T09:24:36.994Z,11.38
2023-10-17T09:27:11.151Z,11.13
2023-10-17T09:29:50.491Z,11.38
2023-10-17T09:32:36.918Z,12.02
2023-10-17T09:35:11.879Z,10.55
2023-10-17T09:37:43.151Z,10.20
2023-10-17T09:40:19.860Z,9.98
2023-10-17T09:42:48.910Z,9.05
2023-10-17T09:45:33.152Z,7.75
2023-10-17T09:48:08.543Z,7.22
2023-10-17T09:50:39.370Z,8.88
2023-10-17T09:53:16.013Z,9.52
2023-10-17T09:55:48.500Z,9.45
2023-10-17T09:58:20.294Z,8.52
2023-10-17T10:00:54.350Z,10.35
2023-10-17T10:03:26.877Z,9.18
2023-10-17T10:05:55.968Z,9.80
2023-10-17T10:08:33.837Z,11.57
2023-10-17T10:11:02.999Z,7.90
2023-10-17T10:13:33.207Z,10.55
2023-10-17T10:16:02.928Z,8.90
2023-10-17T10:18:58.919Z,11.75
2023-10-17T10:22:00.240Z,8.35
2023-10-17T10:24:30.334Z,8.82
2023-10-17T10:27:22.349Z,8.57
2023-10-17T10:29:54.133Z,8.35
2023-10-17T10:32:36.686Z,8.32
2023-10-17T10:35:08.075Z,7.30
2023-10-17T10:37:50.781Z,6.88
2023-10-17T10:40:23.729Z,6.07
2023-10-17T10:42:54.053Z,6.32
2023-10-17T10:45:27.376Z,6.47
2023-10-17T10:47:59.975Z,6.45
2023-10-17T10:50:31.768Z,7.00
2023-10-17T10:53:02.526Z,5.75
2023-10-17T10:55:32.602Z,6.00
2023-10-17T10:58:02.340Z,5.93
2023-10-17T11:00:30.971Z,6.28
2023-10-17T11:03:00.613Z,5.25
2023-10-17T11:05:30.743Z,6.00
2023-10-17T11:08:02.680Z,5.35
2023-10-17T11:10:32.902Z,5.38
2023-10-17T11:13:03.021Z,5.22
2023-10-17T11:15:33.657Z,5.15
2023-10-17T11:18:08.579Z,4.70
2023-10-17T11:20:41.828Z,4.30
2023-10-17T11:23:12.972Z,4.07
2023-10-17T11:25:45.592Z,4.07
2023-10-17T11:28:17.441Z,4.13
2023-10-17T11:30:46.978Z,3.58
2023-10-17T11:33:20.015Z,4.43
2023-10-17T11:35:50.933Z,3.80
2023-10-17T11:38:44.195Z,3.13
2023-10-17T11:41:16.907Z,2.95
2023-10-17T11:43:54.563Z,3.30
2023-10-17T11:46:31.477Z,3.00
2023-10-17T11:49:22.560Z,2.42
2023-10-17T11:52:00.061Z,2.37
2023-10-17T11:57:12.689Z,2.78
2023-10-17T11:59:41.140Z,4.53
2023-10-17T12:02:12.680Z,3.08
2023-10-17T12:04:41.236Z,3.73
2023-10-17T12:07:11.182Z,3.17
2023-10-17T12:09:39.451Z,3.20
2023-10-17T12:12:08.916Z,3.00
2023-10-17T12:14:37.350Z,3.28
2023-10-17T12:17:09.626Z,2.50
2023-10-17T12:19:39.331Z,2.45
2023-10-17T12:22:07.950Z,3.13
2023-10-17T12:24:37.725Z,2.50
2023-10-17T12:27:08.299Z,2.67
2023-10-17T12:29:37.042Z,2.90
2023-10-17T12:32:06.291Z,2.90
2023-10-17T12:34:34.706Z,2.80
2023-10-17T12:37:05.030Z,2.80
2023-10-17T12:39:33.858Z,3.28
2023-10-17T12:42:03.875Z,2.80
2023-10-17T12:44:32.885Z,3.20
2023-10-17T12:47:02.014Z,2.53
2023-10-17T12:49:30.556Z,2.42
2023-10-17T12:52:01.781Z,2.88
2023-10-17T12:54:30.667Z,2.83
2023-10-17T12:57:00.605Z,3.45
2023-10-17T12:59:30.109Z,3.25
2023-10-17T13:01:59.507Z,3.28
2023-10-17T13:04:28.494Z,3.25
2023-10-17T13:06:57.622Z,3.65
2023-10-17T13:09:25.915Z,2.83
2023-10-17T13:11:55.217Z,3.40
2023-10-17T13:14:23.485Z,3.70
2023-10-17T13:16:53.821Z,3.75
2023-10-17T13:19:22.109Z,3.10
2023-10-17T13:21:50.567Z,3.65
2023-10-17T13:24:19.145Z,3.42
2023-10-17T13:26:47.664Z,3.38
2023-10-17T13:29:15.995Z,3.35
2023-10-17T13:31:45.440Z,3.20
2023-10-17T13:34:15.115Z,3.80
2023-10-17T13:36:43.665Z,4.07
2023-10-17T13:39:12.090Z,10.02
2023-10-17T13:41:40.788Z,3.90
2023-10-17T13:44:12.765Z,4.88
2023-10-17T13:49:10.123Z,3.90
2023-10-17T13:51:47.780Z,3.90
2023-10-17T13:54:16.545Z,4.68
2023-10-17T13:56:45.327Z,3.30
2023-10-17T13:59:14.721Z,3.70
2023-10-17T14:01:47.944Z,6.30
2023-10-17T14:04:16.468Z,3.97
2023-10-17T14:06:46.678Z,3.88
2023-10-17T14:09:18.461Z,3.85
2023-10-17T14:11:48.369Z,3.17
2023-10-17T14:14:17.153Z,3.88
2023-10-17T14:16:46.372Z,3.38
2023-10-17T14:19:19.453Z,3.38
2023-10-17T14:22:02.829Z,3.35
2023-10-17T14:24:50.992Z,3.35
2023-10-17T14:27:21.794Z,3.30
2023-10-17T14:29:50.853Z,3.95
2023-10-17T14:32:21.592Z,4.03
2023-10-17T14:34:50.078Z,4.47
2023-10-17T14:37:21.282Z,4.50
2023-10-17T14:39:49.540Z,4.70
2023-10-17T14:42:18.961Z,4.25
2023-10-17T14:44:48.043Z,4.95
2023-10-17T14:47:18.183Z,5.00
2023-10-17T14:49:48.666Z,4.70
2023-10-17T14:52:22.475Z,4.43
2023-10-17T14:54:51.814Z,4.80
2023-10-17T14:57:22.378Z,4.40
2023-10-17T14:59:51.064Z,13.13
2023-10-17T15:02:20.705Z,20.45
2023-10-17T15:04:53.453Z,13.82
2023-10-17T15:07:23.702Z,19.90
2023-10-17T15:09:52.418Z,15.70
2023-10-17T15:12:21.475Z,15.07
2023-10-17T15:14:50.259Z,22.35
2023-10-17T15:17:19.516Z,11.32
2023-10-17T15:19:51.297Z,7.00
2023-10-17T15:24:51.812Z,6.57
2023-10-17T15:27:20.602Z,6.97
2023-10-17T15:29:51.361Z,6.10
2023-10-17T15:32:20.073Z,6.55
2023-10-17T15:34:49.980Z,8.38
2023-10-17T15:37:19.126Z,8.02
2023-10-17T15:39:48.087Z,8.98
2023-10-17T15:42:19.349Z,8.38
2023-10-17T15:44:49.418Z,7.78
2023-10-17T15:47:18.125Z,7.75
2023-10-17T15:49:47.088Z,7.75
2023-10-17T15:52:15.682Z,7.85
2023-10-17T15:54:45.818Z,7.60
2023-10-17T15:57:16.118Z,6.93
2023-10-17T15:59:45.853Z,8.00
2023-10-17T16:02:14.243Z,8.60
2023-10-17T16:04:42.530Z,8.80
2023-10-17T16:07:12.660Z,7.22
2023-10-17T16:09:44.000Z,8.15
2023-10-17T16:12:12.644Z,7.47
2023-10-17T16:14:40.837Z,8.13
2023-10-17T16:17:10.617Z,8.55
2023-10-17T16:19:38.861Z,8.73
2023-10-17T16:22:07.911Z,9.05
2023-10-17T16:24:37.089Z,9.48
2023-10-17T16:27:06.505Z,8.98
2023-10-17T16:29:34.732Z,9.60
2023-10-17T16:32:03.718Z,10.15
2023-10-17T16:34:41.859Z,10.73
2023-10-17T16:37:10.950Z,11.68
2023-10-17T16:39:39.198Z,12.00
2023-10-17T16:42:08.020Z,11.82
2023-10-17T16:44:37.380Z,12.68
2023-10-17T16:47:08.247Z,12.52
2023-10-17T16:49:38.082Z,13.05
2023-10-17T16:52:06.811Z,12.88
2023-10-17T16:54:39.280Z,12.05
2023-10-17T16:57:08.236Z,15.30
2023-10-17T16:59:36.399Z,16.15
2023-10-17T17:02:05.010Z,15.00
2023-10-17T17:04:33.885Z,16.70
2023-10-17T17:07:03.707Z,14.10
2023-10-17T17:09:32.377Z,17.35
2023-10-17T17:12:01.200Z,18.45
2023-10-17T17:14:29.965Z,17.17
2023-10-17T17:16:58.721Z,18.67
2023-10-17T17:19:29.777Z,18.10
2023-10-17T17:21:58.732Z,19.15
2023-10-17T17:24:28.684Z,18.75
2023-10-17T17:26:57.659Z,17.60
2023-10-17T17:29:27.932Z,17.08
2023-10-17T17:31:58.943Z,18.77
2023-10-17T17:34:27.255Z,18.67
2023-10-17T17:36:55.814Z,20.25
2023-10-17T17:39:25.564Z,20.13
2023-10-17T17:41:55.761Z,33.58
2023-10-17T17:44:23.933Z,19.30
2023-10-17T17:46:52.879Z,22.90
2023-10-17T17:49:21.171Z,43.03
2023-10-17T17:51:49.858Z,47.40
2023-10-17T17:54:18.224Z,95.80
2023-10-17T17:56:46.787Z,71.80
2023-10-17T17:59:17.035Z,55.97
2023-10-17T18:01:45.980Z,52.45
2023-10-17T18:04:29.723Z,46.47
2023-10-17T18:07:00.487Z,46.83
2023-10-17T18:09:29.764Z,43.13
2023-10-17T18:12:00.041Z,48.17
2023-10-17T18:14:30.314Z,48.85
2023-10-17T18:16:58.796Z,46.15
2023-10-17T18:19:27.310Z,36.78
2023-10-17T18:21:56.293Z,35.85
2023-10-17T18:24:24.567Z,34.40
2023-10-17T18:26:52.950Z,30.40
2023-10-17T18:29:21.698Z,33.35
2023-10-17T18:31:52.667Z,32.38
2023-10-17T18:34:23.151Z,40.30
2023-10-17T18:36:52.116Z,38.63
2023-10-17T18:39:21.370Z,40.53
2023-10-17T18:41:50.715Z,35.65
2023-10-17T18:44:19.828Z,33.40
2023-10-17T18:46:48.497Z,35.13
2023-10-17T18:49:18.316Z,28.17
2023-10-17T18:51:47.404Z,24.52
2023-10-17T18:54:15.824Z,27.83
2023-10-17T18:56:44.391Z,26.17
2023-10-17T18:59:13.027Z,33.35
2023-10-17T19:01:41.641Z,37.22
2023-10-17T19:04:10.147Z,30.73
2023-10-17T19:06:40.261Z,47.55
2023-10-17T19:09:12.160Z,47.90
2023-10-17T19:14:09.252Z,45.17
2023-10-17T19:16:39.540Z,45.38
2023-10-17T19:19:09.999Z,50.33
2023-10-17T19:21:40.403Z,46.78
2023-10-17T19:24:09.593Z,42.78
2023-10-17T19:26:39.027Z,40.50
2023-10-17T19:29:08.740Z,43.45
2023-10-17T19:31:37.850Z,43.45
2023-10-17T19:34:06.567Z,44.10
2023-10-17T19:36:35.215Z,43.05
2023-10-17T19:39:07.908Z,41.25
2023-10-17T19:41:36.586Z,38.80
2023-10-17T19:44:06.737Z,40.28
2023-10-17T19:46:35.340Z,39.65
2023-10-17T19:49:03.667Z,38.92
2023-10-17T19:51:32.117Z,44.72
2023-10-17T19:54:00.277Z,41.00
2023-10-17T19:56:30.876Z,39.60
2023-10-17T19:58:59.020Z,38.10
2023-10-17T20:01:28.583Z,41.40
2023-10-17T20:03:57.234Z,37.92
2023-10-17T20:06:26.644Z,38.20
2023-10-17T20:08:55.091Z,36.10
2023-10-17T20:11:25.804Z,38.08
2023-10-17T20:13:56.013Z,40.05
2023-10-17T20:16:24.874Z,38.63
2023-10-17T20:18:52.990Z,38.40
2023-10-17T20:21:21.731Z,37.13
2023-10-17T20:23:51.104Z,39.60
2023-10-17T20:26:19.744Z,37.97
2023-10-17T20:28:47.894Z,38.63
2023-10-17T20:31:27.213Z,38.28
2023-10-17T20:33:56.857Z,37.45
2023-10-17T20:36:25.673Z,36.97
2023-10-17T20:38:53.737Z,39.30
2023-10-17T20:41:24.101Z,37.83
2023-10-17T20:43:52.380Z,36.40
2023-10-17T20:46:22.236Z,37.38
2023-10-17T20:48:51.114Z,38.08
2023-10-17T20:51:19.842Z,38.75
2023-10-17T20:53:47.923Z,36.88
2023-10-17T20:56:33.917Z,36.78
2023-10-17T20:59:08.153Z,39.83
2023-10-17T21:01:38.085Z,41.35
2023-10-17T21:04:07.236Z,41.47
2023-10-17T21:06:35.865Z,42.05
2023-10-17T21:09:05.775Z,42.95
2023-10-17T21:11:34.252Z,41.83
2023-10-17T21:14:02.349Z,42.60
2023-10-17T21:16:30.723Z,45.70
2023-10-17T21:19:00.123Z,44.13
2023-10-17T21:21:30.694Z,42.13
2023-10-17T21:23:58.873Z,44.38
2023-10-17T21:26:27.194Z,45.83
2023-10-17T21:28:56.239Z,46.70
2023-10-17T21:31:24.572Z,45.13
2023-10-17T21:33:52.556Z,44.63
2023-10-17T21:36:22.687Z,42.50
2023-10-17T21:38:51.931Z,43.35
2023-10-17T21:41:20.269Z,47.13
2023-10-17T21:43:48.461Z,46.25
2023-10-17T21:46:16.792Z,45.10
2023-10-17T21:48:46.691Z,45.95
2023-10-17T21:51:19.615Z,47.92
2023-10-17T21:53:49.586Z,47.28
2023-10-17T21:56:18.998Z,46.90
2023-10-17T21:58:50.491Z,47.13
2023-10-17T22:01:23.284Z,44.53
2023-10-17T22:03:51.772Z,45.03
2023-10-17T22:06:21.819Z,44.30
2023-10-17T22:08:51.689Z,43.08
2023-10-17T22:11:20.514Z,43.70
2023-10-17T22:13:51.025Z,41.75
2023-10-17T22:16:21.304Z,42.05
2023-10-17T22:18:50.330Z,41.80
2023-10-17T22:21:20.921Z,40.65
2023-10-17T22:23:51.691Z,40.05
2023-10-17T22:26:20.317Z,37.65
2023-10-17T22:28:48.423Z,36.17
2023-10-17T22:31:18.560Z,38.35
2023-10-17T22:33:46.712Z,38.40
2023-10-17T22:36:16.297Z,37.88
2023-10-17T22:38:45.052Z,34.97
2023-10-17T22:41:14.655Z,35.00
2023-10-17T22:43:42.684Z,34.25
2023-10-17T22:46:11.106Z,34.00
2023-10-17T22:48:39.153Z,33.55
2023-10-17T22:51:07.575Z,33.78
2023-10-17T22:53:37.368Z,32.60
2023-10-17T22:56:10.881Z,33.17
2023-10-17T22:58:41.214Z,33.05
2023-10-17T23:01:13.245Z,28.67
2023-10-17T23:03:42.762Z,27.80
2023-10-17T23:06:11.698Z,28.92
2023-10-17T23:08:39.923Z,28.83
2023-10-17T23:11:08.598Z,28.65
2023-10-17T23:13:37.186Z,28.17
2023-10-17T23:16:09.979Z,29.58
2023-10-17T23:18:42.563Z,30.25
2023-10-17T23:21:11.312Z,28.90
2023-10-17T23:23:39.450Z,29.50
2023-10-17T23:26:08.632Z,28.10
2023-10-17T23:28:36.761Z,29.15
2023-10-17T23:31:09.369Z,28.30
2023-10-17T23:36:06.464Z,26.20
2023-10-17T23:38:34.454Z,26.73
2023-10-17T23:41:02.913Z,26.17
2023-10-17T23:43:31.057Z,26.77
2023-10-17T23:46:00.449Z,27.75
2023-10-17T23:48:29.918Z,30.17
2023-10-17T23:50:58.916Z,28.88
2023-10-17T23:53:28.848Z,28.92
2023-10-17T23:56:02.339Z,27.10
2023-10-17T23:58:31.433Z,27.75
